createdAt,value
2023-01-13T00:00:33.751Z,1.00
2023-01-13T00:03:01.268Z,1.00
2023-01-13T00:05:28.362Z,1.00
2023-01-13T00:07:55.063Z,1.00
2023-01-13T00:10:21.759Z,1.00
2023-01-13T00:12:48.414Z,1.00
2023-01-13T00:15:15.218Z,1.00
2023-01-13T00:17:41.925Z,1.00
2023-01-13T00:20:10.186Z,1.00
2023-01-13T00:22:37.013Z,1.00
2023-01-13T00:25:04.429Z,1.00
2023-01-13T00:27:31.607Z,1.00
2023-01-13T00:29:58.596Z,1.00
2023-01-13T00:32:25.521Z,1.00
2023-01-13T00:34:52.333Z,1.00
2023-01-13T00:37:18.992Z,1.00
2023-01-13T00:39:45.896Z,1.00
2023-01-13T00:42:31.436Z,1.00
2023-01-13T00:44:58.149Z,1.00
2023-01-13T00:47:24.841Z,1.00
2023-01-13T00:49:51.539Z,1.00
2023-01-13T00:52:18.224Z,1.00
2023-01-13T00:54:44.981Z,1.00
2023-01-13T00:57:11.790Z,1.70
2023-01-13T00:59:38.445Z,2.20
2023-01-13T01:02:05.265Z,2.80
2023-01-13T01:04:32.071Z,4.80
2023-01-13T01:06:58.799Z,5.80
2023-01-13T01:09:32.572Z,7.50
2023-01-13T01:12:00.174Z,7.80
2023-01-13T01:14:27.685Z,8.50
2023-01-13T01:16:54.697Z,8.40
2023-01-13T01:19:21.475Z,10.20
2023-01-13T01:21:48.180Z,12.30
2023-01-13T01:24:16.528Z,14.30
2023-01-13T01:26:43.404Z,19.00
2023-01-13T01:29:13.753Z,17.80
2023-01-13T01:31:40.452Z,19.00
2023-01-13T01:34:07.178Z,20.00
2023-01-13T01:36:35.245Z,22.30
2023-01-13T01:39:02.268Z,25.00
2023-01-13T01:41:32.006Z,23.70
2023-01-13T01:44:00.597Z,25.00
2023-01-13T01:46:38.702Z,18.80
2023-01-13T01:49:12.650Z,18.40
2023-01-13T01:52:02.302Z,13.10
2023-01-13T01:54:39.682Z,5.10
2023-01-13T01:57:09.113Z,1.00
2023-01-13T01:59:36.519Z,1.00
2023-01-13T02:02:03.564Z,1.00
2023-01-13T02:04:34.345Z,1.00
2023-01-13T02:07:03.228Z,1.00
2023-01-13T02:09:30.421Z,1.00
2023-01-13T02:12:15.860Z,1.00
2023-01-13T02:14:43.919Z,1.00
2023-01-13T02:17:36.803Z,1.00
2023-01-13T02:20:41.264Z,1.00
2023-01-13T02:23:36.784Z,1.00
2023-01-13T02:26:31.957Z,1.00
2023-01-13T02:30:05.116Z,1.00
2023-01-13T02:32:50.765Z,1.00
2023-01-13T02:35:30.358Z,1.00
2023-01-13T02:38:00.579Z,4.90
2023-01-13T02:40:34.540Z,7.20
2023-01-13T02:43:54.506Z,10.10
2023-01-13T02:46:28.795Z,10.60
2023-01-13T02:48:57.129Z,6.80
2023-01-13T02:51:27.014Z,5.60
2023-01-13T02:54:14.261Z,10.00
2023-01-13T02:56:45.044Z,8.70
2023-01-13T02:59:12.393Z,5.70
2023-01-13T03:01:39.422Z,4.80
2023-01-13T03:04:14.388Z,6.60
2023-01-13T03:06:48.773Z,3.40
2023-01-13T03:09:32.619Z,1.00
2023-01-13T03:12:24.346Z,4.30
2023-01-13T03:15:17.233Z,5.10
2023-01-13T03:18:02.163Z,1.30
2023-01-13T03:20:34.955Z,2.20
2023-01-13T03:23:11.047Z,1.00
2023-01-13T03:25:43.361Z,1.00
2023-01-13T03:28:27.826Z,1.00
2023-01-13T03:31:01.849Z,2.50
2023-01-13T03:33:37.025Z,10.20
2023-01-13T03:36:09.219Z,6.70
2023-01-13T03:38:52.016Z,4.50
2023-01-13T03:41:40.503Z,5.80
2023-01-13T03:44:24.487Z,4.00
2023-01-13T03:47:07.403Z,1.20
2023-01-13T03:49:51.919Z,1.40
2023-01-13T03:52:37.689Z,1.00
2023-01-13T03:55:10.628Z,1.70
2023-01-13T03:57:43.591Z,1.00
2023-01-13T04:00:14.513Z,1.00
2023-01-13T04:02:49.125Z,1.00
2023-01-13T04:05:17.322Z,1.00
2023-01-13T04:07:51.812Z,1.00
2023-01-13T04:10:45.469Z,1.00
2023-01-13T04:13:16.502Z,1.00
2023-01-13T04:15:45.249Z,1.00
2023-01-13T04:18:16.843Z,1.00
2023-01-13T04:20:45.761Z,1.00
2023-01-13T04:23:13.703Z,1.00
2023-01-13T04:25:41.871Z,1.00
2023-01-13T04:28:09.530Z,1.00
2023-01-13T04:30:36.422Z,1.00
2023-01-13T04:33:04.394Z,1.00
2023-01-13T04:35:32.272Z,1.00
2023-01-13T04:38:03.885Z,1.00
2023-01-13T04:40:30.643Z,1.00
2023-01-13T04:42:57.335Z,1.00
2023-01-13T04:45:24.213Z,1.00
2023-01-13T04:47:51.623Z,1.00
2023-01-13T04:50:19.786Z,1.00
2023-01-13T04:52:50.124Z,1.00
2023-01-13T04:55:18.170Z,1.00
2023-01-13T04:57:44.911Z,1.00
2023-01-13T05:00:13.797Z,1.00
2023-01-13T05:02:41.006Z,1.00
2023-01-13T05:05:08.367Z,1.00
2023-01-13T05:07:35.242Z,1.00
2023-01-13T05:10:01.993Z,1.10
2023-01-13T05:12:47.289Z,1.00
2023-01-13T05:15:33.707Z,3.20
2023-01-13T05:18:01.722Z,4.70
2023-01-13T05:20:28.559Z,3.50
2023-01-13T05:23:13.840Z,4.50
2023-01-13T05:25:44.084Z,5.10
2023-01-13T05:28:11.400Z,7.70
2023-01-13T05:30:45.976Z,8.10
2023-01-13T05:33:18.167Z,8.00
2023-01-13T05:35:46.807Z,8.40
2023-01-13T05:38:14.238Z,9.60
2023-01-13T05:41:00.325Z,8.80
2023-01-13T05:43:27.538Z,8.10
2023-01-13T05:46:05.116Z,8.90
2023-01-13T05:48:37.985Z,9.30
2023-01-13T05:51:07.105Z,7.60
2023-01-13T05:53:34.797Z,6.50
2023-01-13T05:56:05.059Z,7.00
2023-01-13T05:58:31.943Z,5.60
2023-01-13T06:01:05.011Z,4.30
2023-01-13T06:03:31.801Z,2.20
2023-01-13T06:06:01.547Z,4.70
2023-01-13T06:08:28.691Z,7.70
2023-01-13T06:10:55.565Z,5.80
2023-01-13T06:13:22.871Z,3.20
2023-01-13T06:15:49.693Z,1.70
2023-01-13T06:18:16.544Z,1.80
2023-01-13T06:20:43.288Z,1.60
2023-01-13T06:23:11.734Z,3.30
2023-01-13T06:26:03.404Z,1.00
2023-01-13T06:28:30.201Z,1.10
2023-01-13T06:31:00.752Z,1.00
2023-01-13T06:33:32.084Z,1.00
2023-01-13T06:36:04.536Z,1.00
2023-01-13T06:38:35.039Z,1.00
2023-01-13T06:41:02.282Z,1.10
2023-01-13T06:43:29.082Z,1.30
2023-01-13T06:45:56.530Z,1.00
2023-01-13T06:48:27.801Z,1.00
2023-01-13T06:50:54.620Z,1.00
2023-01-13T06:53:21.665Z,1.00
2023-01-13T06:55:48.420Z,1.00
2023-01-13T06:58:15.136Z,1.00
2023-01-13T07:00:41.982Z,1.00
2023-01-13T07:03:10.363Z,4.60
2023-01-13T07:05:37.813Z,4.70
2023-01-13T07:08:04.832Z,3.20
2023-01-13T07:10:32.617Z,5.80
2023-01-13T07:13:22.090Z,7.00
2023-01-13T07:16:00.976Z,9.20
2023-01-13T07:18:31.436Z,10.60
2023-01-13T07:21:04.007Z,12.70
2023-01-13T07:23:35.572Z,12.30
2023-01-13T07:26:02.778Z,12.10
2023-01-13T07:28:30.405Z,15.50
2023-01-13T07:30:57.833Z,15.80
2023-01-13T07:33:24.972Z,16.10
2023-01-13T07:36:02.770Z,18.60
2023-01-13T07:38:30.042Z,18.20
2023-01-13T07:40:56.790Z,20.20
2023-01-13T07:43:32.627Z,21.00
2023-01-13T07:46:05.078Z,22.30
2023-01-13T07:48:33.686Z,22.10
2023-01-13T07:51:05.351Z,24.80
2023-01-13T07:53:32.416Z,24.30
2023-01-13T07:55:59.314Z,25.40
2023-01-13T07:58:26.733Z,26.40
2023-01-13T08:00:54.185Z,26.30
2023-01-13T08:03:21.790Z,26.20
2023-01-13T08:05:48.598Z,29.20
2023-01-13T08:08:15.851Z,27.70
2023-01-13T08:10:42.749Z,27.10
2023-01-13T08:13:18.262Z,25.00
2023-01-13T08:15:58.722Z,22.10
2023-01-13T08:18:25.538Z,23.90
2023-01-13T08:20:52.885Z,21.80
2023-01-13T08:23:21.160Z,19.30
2023-01-13T08:25:48.323Z,23.70
2023-01-13T08:28:15.900Z,21.50
2023-01-13T08:30:43.515Z,21.20
2023-01-13T08:33:12.149Z,21.80
2023-01-13T08:35:40.531Z,23.30
2023-01-13T08:38:08.250Z,21.80
2023-01-13T08:40:35.706Z,24.00
2023-01-13T08:43:02.534Z,26.60
2023-01-13T08:45:29.267Z,23.60
2023-01-13T08:47:56.027Z,21.40
2023-01-13T08:50:22.875Z,19.70
2023-01-13T08:52:50.879Z,20.40
2023-01-13T08:55:17.627Z,18.20
2023-01-13T08:57:44.442Z,15.80
2023-01-13T09:00:12.686Z,13.00
2023-01-13T09:02:39.417Z,13.30
2023-01-13T09:05:07.988Z,15.20
2023-01-13T09:07:36.101Z,13.10
2023-01-13T09:10:07.109Z,9.50
2023-01-13T09:12:52.604Z,12.20
2023-01-13T09:15:19.592Z,25.10
2023-01-13T09:17:47.875Z,38.30
2023-01-13T09:20:14.859Z,44.40
2023-01-13T09:22:41.770Z,43.80
2023-01-13T09:25:09.273Z,61.50
2023-01-13T09:27:36.185Z,70.30
2023-01-13T09:30:03.503Z,81.60
2023-01-13T09:32:30.256Z,83.10
2023-01-13T09:35:03.852Z,83.90
2023-01-13T09:37:35.970Z,86.40
2023-01-13T09:40:05.401Z,89.70
2023-01-13T09:43:13.877Z,90.50
2023-01-13T09:45:51.467Z,90.90
2023-01-13T09:48:32.054Z,90.90
2023-01-13T09:51:03.864Z,91.10
2023-01-13T09:53:55.763Z,91.20
2023-01-13T09:56:23.960Z,91.30
2023-01-13T09:58:50.986Z,91.30
2023-01-13T10:01:47.916Z,91.40
2023-01-13T10:04:15.799Z,91.40
2023-01-13T10:06:47.541Z,91.40
2023-01-13T10:09:25.779Z,91.50
2023-01-13T10:12:13.823Z,91.40
2023-01-13T10:14:50.274Z,91.40
2023-01-13T10:17:42.964Z,91.40
2023-01-13T10:20:24.926Z,91.40
2023-01-13T10:23:28.499Z,91.40
2023-01-13T10:26:13.899Z,91.40
2023-01-13T10:28:40.698Z,91.40
2023-01-13T10:31:14.765Z,91.40
2023-01-13T10:33:41.715Z,91.40
2023-01-13T10:36:16.723Z,91.40
2023-01-13T10:38:45.933Z,91.40
2023-01-13T10:41:15.391Z,91.40
2023-01-13T10:44:06.354Z,91.40
2023-01-13T10:46:49.780Z,91.50
2023-01-13T10:49:27.806Z,91.40
2023-01-13T10:51:54.920Z,91.40
2023-01-13T10:54:24.038Z,91.40
2023-01-13T10:57:15.995Z,91.30
2023-01-13T10:59:42.801Z,91.30
2023-01-13T11:02:27.367Z,91.30
2023-01-13T11:04:54.297Z,91.30
2023-01-13T11:07:38.306Z,91.30
2023-01-13T11:10:05.813Z,91.30
2023-01-13T11:12:34.633Z,91.30
2023-01-13T11:15:05.357Z,91.30
2023-01-13T11:18:00.484Z,91.30
2023-01-13T11:20:48.651Z,91.30
2023-01-13T11:23:27.464Z,91.30
2023-01-13T11:26:01.952Z,91.30
2023-01-13T11:28:37.781Z,91.30
2023-01-13T11:31:36.489Z,91.30
2023-01-13T11:34:14.138Z,91.30
2023-01-13T11:36:46.394Z,91.40
2023-01-13T11:39:55.359Z,91.40
2023-01-13T11:42:27.706Z,91.40
2023-01-13T11:45:16.973Z,91.40
2023-01-13T11:47:51.110Z,91.40
2023-01-13T11:50:42.490Z,91.40
2023-01-13T11:53:18.567Z,91.40
2023-01-13T11:56:20.018Z,91.30
2023-01-13T11:59:01.692Z,91.30
2023-01-13T12:01:47.304Z,91.30
2023-01-13T12:04:26.050Z,91.30
2023-01-13T12:07:22.162Z,91.20
2023-01-13T12:10:03.978Z,95.80
2023-01-13T12:12:51.641Z,95.60
2023-01-13T12:15:22.194Z,95.40
2023-01-13T12:18:16.586Z,95.40
2023-01-13T12:20:55.520Z,95.50
2023-01-13T12:23:39.021Z,95.50
2023-01-13T12:26:10.354Z,95.50
2023-01-13T12:28:57.728Z,95.50
2023-01-13T12:31:26.633Z,95.50
2023-01-13T12:34:21.093Z,95.60
2023-01-13T12:36:58.614Z,95.60
2023-01-13T12:39:50.803Z,95.60
2023-01-13T12:42:57.760Z,95.60
2023-01-13T12:45:32.363Z,95.60
2023-01-13T12:48:00.704Z,95.60
2023-01-13T12:50:27.462Z,95.60
2023-01-13T12:52:58.140Z,95.50
2023-01-13T12:55:26.079Z,95.50
2023-01-13T12:57:55.936Z,95.50
2023-01-13T13:00:23.069Z,95.50
2023-01-13T13:03:10.550Z,95.50
2023-01-13T13:05:48.863Z,95.60
2023-01-13T13:08:51.492Z,95.60
2023-01-13T13:11:54.480Z,95.50
2023-01-13T13:14:39.619Z,95.50
2023-01-13T13:17:28.259Z,95.60
2023-01-13T13:19:59.680Z,91.00
2023-01-13T13:22:26.383Z,90.90
2023-01-13T13:24:56.141Z,90.30
2023-01-13T13:27:40.204Z,89.70
2023-01-13T13:30:30.448Z,89.60
2023-01-13T13:33:08.844Z,89.40
2023-01-13T13:36:14.742Z,88.30
2023-01-13T13:39:34.093Z,87.00
2023-01-13T13:42:41.753Z,93.70
2023-01-13T13:45:40.349Z,93.70
2023-01-13T13:48:30.685Z,94.30
2023-01-13T13:51:04.132Z,93.90
2023-01-13T13:53:38.429Z,94.30
2023-01-13T13:56:15.968Z,87.50
2023-01-13T13:58:42.895Z,85.40
2023-01-13T14:01:28.546Z,83.30
2023-01-13T14:04:07.469Z,76.20
2023-01-13T14:06:34.399Z,75.20
2023-01-13T14:09:03.390Z,77.20
2023-01-13T14:11:33.774Z,82.20
2023-01-13T14:14:16.764Z,87.90
2023-01-13T14:16:43.509Z,89.70
2023-01-13T14:19:32.742Z,91.10
2023-01-13T14:22:02.224Z,92.40
2023-01-13T14:24:30.343Z,91.80
2023-01-13T14:27:17.187Z,90.80
2023-01-13T14:29:45.196Z,76.20
2023-01-13T14:32:18.882Z,89.60
2023-01-13T14:34:46.063Z,89.40
2023-01-13T14:37:26.630Z,89.60
2023-01-13T14:39:53.579Z,90.20
2023-01-13T14:42:21.615Z,90.10
2023-01-13T14:44:51.016Z,90.10
2023-01-13T14:47:31.557Z,90.70
2023-01-13T14:50:19.909Z,89.10
2023-01-13T14:52:56.979Z,88.90
2023-01-13T14:55:28.414Z,90.10
2023-01-13T14:58:28.571Z,85.00
2023-01-13T15:01:28.035Z,83.40
2023-01-13T15:03:55.344Z,84.40
2023-01-13T15:06:24.361Z,84.20
2023-01-13T15:08:52.481Z,86.80
2023-01-13T15:11:28.599Z,90.00
2023-01-13T15:14:03.417Z,91.00
2023-01-13T15:16:33.898Z,90.20
2023-01-13T15:19:01.617Z,91.10
2023-01-13T15:21:28.482Z,92.80
2023-01-13T15:23:55.277Z,94.00
2023-01-13T15:26:23.411Z,94.70
2023-01-13T15:28:51.574Z,95.00
2023-01-13T15:31:19.161Z,95.20
2023-01-13T15:33:46.223Z,95.20
2023-01-13T15:36:24.402Z,95.30
2023-01-13T15:38:51.424Z,95.30
2023-01-13T15:41:38.191Z,95.40
2023-01-13T15:44:23.560Z,95.40
2023-01-13T15:46:51.562Z,95.40
2023-01-13T15:49:26.797Z,95.40
2023-01-13T15:51:54.082Z,95.40
2023-01-13T15:54:24.391Z,95.40
2023-01-13T15:56:51.702Z,95.40
2023-01-13T15:59:22.244Z,95.50
2023-01-13T16:01:49.103Z,95.50
2023-01-13T16:04:15.799Z,95.50
2023-01-13T16:06:42.996Z,95.50
2023-01-13T16:09:13.563Z,95.50
2023-01-13T16:11:40.421Z,95.50
2023-01-13T16:14:07.126Z,95.40
2023-01-13T16:16:33.971Z,95.50
2023-01-13T16:19:00.673Z,95.50
2023-01-13T16:21:27.437Z,95.50
2023-01-13T16:23:54.267Z,95.50
2023-01-13T16:26:24.183Z,95.40
2023-01-13T16:28:52.799Z,95.40
2023-01-13T16:31:31.853Z,95.40
2023-01-13T16:34:00.405Z,95.40
2023-01-13T16:36:28.859Z,95.40
2023-01-13T16:38:56.786Z,95.40
2023-01-13T16:41:25.013Z,95.40
2023-01-13T16:43:52.289Z,95.30
2023-01-13T16:46:25.497Z,95.30
2023-01-13T16:48:54.773Z,95.30
2023-01-13T16:51:23.252Z,95.30
2023-01-13T16:53:50.305Z,95.30
2023-01-13T16:56:20.778Z,95.30
2023-01-13T16:58:47.722Z,95.30
2023-01-13T17:01:22.605Z,95.30
2023-01-13T17:03:49.433Z,95.30
2023-01-13T17:06:47.248Z,95.30
2023-01-13T17:09:20.235Z,95.30
2023-01-13T17:11:47.037Z,95.30
2023-01-13T17:14:19.315Z,95.30
2023-01-13T17:16:46.765Z,95.30
2023-01-13T17:19:14.136Z,95.30
2023-01-13T17:21:41.168Z,95.30
2023-01-13T17:24:09.664Z,95.30
2023-01-13T17:26:38.038Z,95.30
2023-01-13T17:29:07.101Z,95.30
2023-01-13T17:31:35.155Z,95.30
2023-01-13T17:34:03.213Z,95.30
2023-01-13T17:36:29.927Z,95.30
2023-01-13T17:38:57.419Z,95.30
2023-01-13T17:41:25.728Z,95.30
2023-01-13T17:43:53.550Z,95.30
2023-01-13T17:46:22.810Z,95.30
2023-01-13T17:48:51.075Z,95.30
2023-01-13T17:51:18.777Z,95.30
2023-01-13T17:53:45.660Z,95.30
2023-01-13T17:56:14.728Z,95.30
2023-01-13T17:58:41.821Z,95.20
2023-01-13T18:01:17.991Z,95.20
2023-01-13T18:03:44.965Z,95.20
2023-01-13T18:06:20.527Z,95.20
2023-01-13T18:08:47.575Z,95.20
2023-01-13T18:11:18.876Z,95.10
2023-01-13T18:13:46.942Z,95.00
2023-01-13T18:16:16.114Z,94.90
2023-01-13T18:18:44.740Z,94.90
2023-01-13T18:21:41.470Z,94.80
2023-01-13T18:24:32.086Z,94.80
2023-01-13T18:27:17.655Z,94.50
2023-01-13T18:29:45.171Z,94.00
2023-01-13T18:32:12.235Z,93.90
2023-01-13T18:34:39.451Z,94.20
2023-01-13T18:37:08.247Z,94.60
2023-01-13T18:39:37.399Z,94.70
2023-01-13T18:42:23.668Z,94.90
2023-01-13T18:44:50.426Z,95.00
2023-01-13T18:47:17.203Z,95.10
2023-01-13T18:49:44.010Z,95.20
2023-01-13T18:52:10.833Z,95.20
2023-01-13T18:54:37.607Z,95.30
2023-01-13T18:57:04.618Z,95.30
2023-01-13T18:59:33.210Z,95.30
2023-01-13T19:02:00.663Z,95.30
2023-01-13T19:04:27.528Z,95.30
2023-01-13T19:07:00.108Z,95.30
2023-01-13T19:09:28.692Z,95.30
2023-01-13T19:11:57.083Z,95.30
2023-01-13T19:14:34.271Z,95.30
2023-01-13T19:17:09.427Z,95.30
2023-01-13T19:19:40.555Z,95.30
2023-01-13T19:22:08.329Z,95.30
2023-01-13T19:24:35.204Z,95.20
2023-01-13T19:27:02.201Z,95.10
2023-01-13T19:29:32.229Z,95.10
2023-01-13T19:32:00.809Z,95.10
2023-01-13T19:34:28.218Z,95.00
2023-01-13T19:36:55.526Z,94.90
2023-01-13T19:39:23.081Z,94.70
2023-01-13T19:42:19.269Z,94.60
2023-01-13T19:45:04.645Z,94.50
2023-01-13T19:47:31.445Z,94.50
2023-01-13T19:49:58.239Z,94.40
2023-01-13T19:52:24.996Z,94.10
2023-01-13T19:54:51.929Z,94.00
2023-01-13T19:57:18.703Z,94.00
2023-01-13T19:59:45.481Z,93.40
2023-01-13T20:02:16.460Z,93.20
2023-01-13T20:04:48.829Z,92.90
2023-01-13T20:07:15.558Z,92.80
2023-01-13T20:09:44.494Z,92.90
2023-01-13T20:12:18.096Z,93.10
2023-01-13T20:14:46.369Z,92.20
2023-01-13T20:17:15.378Z,92.20
2023-01-13T20:19:42.227Z,92.80
2023-01-13T20:22:09.457Z,93.20
2023-01-13T20:24:36.254Z,93.30
2023-01-13T20:27:03.810Z,93.30
2023-01-13T20:29:31.483Z,93.20
2023-01-13T20:31:58.637Z,93.00
2023-01-13T20:34:26.050Z,93.20
2023-01-13T20:36:53.151Z,93.30
2023-01-13T20:39:21.974Z,93.60
2023-01-13T20:42:07.870Z,93.70
2023-01-13T20:44:35.107Z,93.50
2023-01-13T20:47:02.931Z,93.60
2023-01-13T20:49:30.375Z,93.20
2023-01-13T20:51:57.835Z,93.20
2023-01-13T20:54:25.062Z,93.70
2023-01-13T20:56:52.204Z,93.60
2023-01-13T20:59:19.056Z,93.40
2023-01-13T21:01:45.990Z,93.30
2023-01-13T21:04:12.885Z,93.40
2023-01-13T21:06:39.690Z,93.40
2023-01-13T21:09:06.439Z,93.50
2023-01-13T21:11:51.947Z,93.70
2023-01-13T21:14:38.912Z,93.90
2023-01-13T21:17:06.134Z,93.70
2023-01-13T21:19:33.082Z,93.90
2023-01-13T21:21:59.845Z,94.30
2023-01-13T21:24:26.882Z,94.40
2023-01-13T21:26:59.003Z,94.70
2023-01-13T21:29:25.735Z,94.90
2023-01-13T21:31:54.125Z,95.00
2023-01-13T21:34:20.949Z,95.00
2023-01-13T21:36:47.619Z,95.10
2023-01-13T21:39:15.993Z,95.10
2023-01-13T21:42:01.341Z,95.10
2023-01-13T21:44:46.686Z,95.10
2023-01-13T21:47:37.313Z,95.10
2023-01-13T21:50:08.880Z,95.10
2023-01-13T21:52:35.808Z,95.20
2023-01-13T21:55:20.264Z,95.10
2023-01-13T21:57:48.406Z,95.10
2023-01-13T22:00:17.144Z,95.10
2023-01-13T22:02:44.437Z,95.10
2023-01-13T22:05:12.865Z,95.20
2023-01-13T22:07:40.441Z,95.20
2023-01-13T22:10:10.210Z,95.20
2023-01-13T22:12:37.290Z,95.20
2023-01-13T22:15:04.574Z,95.20
2023-01-13T22:17:34.204Z,95.20
2023-01-13T22:20:01.380Z,95.20
2023-01-13T22:22:29.156Z,95.20
2023-01-13T22:24:56.025Z,95.20
2023-01-13T22:27:25.397Z,95.20
2023-01-13T22:29:53.439Z,95.20
2023-01-13T22:32:21.052Z,95.20
2023-01-13T22:34:48.108Z,95.20
2023-01-13T22:37:15.182Z,95.20
2023-01-13T22:39:41.970Z,95.20
2023-01-13T22:42:10.128Z,95.20
2023-01-13T22:44:36.929Z,95.10
2023-01-13T22:47:03.846Z,95.10
2023-01-13T22:49:31.121Z,95.10
2023-01-13T22:51:57.833Z,95.20
2023-01-13T22:54:24.502Z,95.10
2023-01-13T22:56:51.256Z,95.20
2023-01-13T22:59:18.679Z,95.20
2023-01-13T23:01:45.499Z,95.20
2023-01-13T23:04:15.590Z,95.20
2023-01-13T23:06:42.450Z,95.20
2023-01-13T23:09:10.083Z,95.20
2023-01-13T23:11:36.829Z,95.20
2023-01-13T23:14:06.891Z,95.10
2023-01-13T23:16:36.911Z,95.20
2023-01-13T23:19:04.818Z,95.10
2023-01-13T23:21:36.098Z,95.10
2023-01-13T23:24:04.514Z,95.10
2023-01-13T23:26:32.927Z,95.10
2023-01-13T23:29:01.372Z,95.10
2023-01-13T23:31:28.468Z,95.20
2023-01-13T23:33:55.190Z,95.20
2023-01-13T23:36:25.042Z,95.20
2023-01-13T23:38:52.436Z,95.20
2023-01-13T23:41:24.211Z,95.20
2023-01-13T23:43:59.359Z,95.20
2023-01-13T23:46:27.217Z,95.20
2023-01-13T23:48:55.384Z,95.10
2023-01-13T23:51:22.958Z,95.10
2023-01-13T23:53:50.691Z,95.10
2023-01-13T23:56:20.173Z,95.10
2023-01-13T23:58:47.406Z,95.10
